createdAt,value
2022-11-30T00:01:00.926Z,1017.36
2022-11-30T00:06:08.109Z,1017.39
2022-11-30T00:11:15.271Z,1017.33
2022-11-30T00:16:22.600Z,1017.30
2022-11-30T00:21:29.711Z,1017.32
2022-11-30T00:26:36.890Z,1017.33
2022-11-30T00:31:44.124Z,1017.32
2022-11-30T00:36:51.317Z,1017.30
2022-11-30T00:41:58.505Z,1017.32
2022-11-30T00:47:05.723Z,1017.36
2022-11-30T00:52:12.919Z,1017.38
2022-11-30T00:57:20.128Z,1017.31
2022-11-30T01:02:27.495Z,1017.33
2022-11-30T01:07:34.723Z,1017.34
2022-11-30T01:12:41.821Z,1017.35
2022-11-30T01:17:49.060Z,1017.40
2022-11-30T01:22:56.265Z,1017.36
2022-11-30T01:28:03.503Z,1017.37
2022-11-30T01:33:10.726Z,1017.43
2022-11-30T01:38:17.989Z,1017.45
2022-11-30T01:43:25.180Z,1017.44
2022-11-30T01:48:32.365Z,1017.43
2022-11-30T01:53:39.612Z,1017.50
2022-11-30T01:58:46.787Z,1017.58
2022-11-30T02:03:53.973Z,1017.53
2022-11-30T02:09:01.208Z,1017.48
2022-11-30T02:14:08.390Z,1017.53
2022-11-30T02:19:15.610Z,1017.53
2022-11-30T02:24:22.787Z,1017.61
2022-11-30T02:29:33.789Z,1017.55
2022-11-30T02:34:41.020Z,1017.52
2022-11-30T02:39:48.217Z,1017.56
2022-11-30T02:44:55.442Z,1017.49
2022-11-30T02:50:02.633Z,1017.55
2022-11-30T02:55:09.919Z,1017.53
2022-11-30T03:00:17.133Z,1017.56
2022-11-30T03:05:24.385Z,1017.59
2022-11-30T03:10:31.575Z,1017.62
2022-11-30T03:15:38.808Z,1017.60
2022-11-30T03:20:45.954Z,1017.62
2022-11-30T03:25:53.153Z,1017.63
2022-11-30T03:31:00.426Z,1017.61
2022-11-30T03:36:07.551Z,1017.57
2022-11-30T03:41:14.894Z,1017.60
2022-11-30T03:46:22.136Z,1017.65
2022-11-30T03:51:29.288Z,1017.63
2022-11-30T03:56:36.491Z,1017.62
2022-11-30T04:01:43.749Z,1017.63
2022-11-30T04:06:50.840Z,1017.64
2022-11-30T04:11:58.127Z,1017.67
2022-11-30T04:17:05.260Z,1017.70
2022-11-30T04:22:12.470Z,1017.69
2022-11-30T04:27:19.722Z,1017.72
2022-11-30T04:32:26.888Z,1017.79
2022-11-30T04:37:34.116Z,1017.77
2022-11-30T04:42:41.353Z,1017.78
2022-11-30T04:47:48.572Z,1017.77
2022-11-30T04:52:55.725Z,1017.77
2022-11-30T04:58:02.967Z,1017.79
2022-11-30T05:03:10.134Z,1017.77
2022-11-30T05:08:17.338Z,1017.74
2022-11-30T05:13:24.592Z,1017.71
2022-11-30T05:18:31.774Z,1017.71
2022-11-30T05:23:38.960Z,1017.69
2022-11-30T05:28:46.181Z,1017.73
2022-11-30T05:33:53.381Z,1017.74
2022-11-30T05:39:00.582Z,1017.65
2022-11-30T05:44:07.794Z,1017.65
2022-11-30T05:49:14.991Z,1017.72
2022-11-30T05:54:22.195Z,1017.78
2022-11-30T05:59:29.467Z,1017.77
2022-11-30T06:04:36.706Z,1017.81
2022-11-30T06:09:43.905Z,1017.85
2022-11-30T06:14:51.137Z,1017.82
2022-11-30T06:19:58.300Z,1017.83
2022-11-30T06:25:05.514Z,1017.82
2022-11-30T06:30:12.710Z,1017.77
2022-11-30T06:35:19.916Z,1017.84
2022-11-30T06:40:27.234Z,1017.81
2022-11-30T06:45:34.623Z,1017.83
2022-11-30T06:50:46.882Z,1017.87
2022-11-30T06:55:48.797Z,1017.91
2022-11-30T07:00:56.145Z,1017.85
2022-11-30T07:06:03.247Z,1017.87
2022-11-30T07:11:10.455Z,1017.92
2022-11-30T07:16:17.778Z,1017.90
2022-11-30T07:21:24.887Z,1017.92
2022-11-30T07:26:32.045Z,1017.97
2022-11-30T07:31:39.372Z,1017.97
2022-11-30T07:36:46.471Z,1018.03
2022-11-30T07:41:53.633Z,1018.06
2022-11-30T07:47:00.907Z,1018.07
2022-11-30T07:52:08.076Z,1018.09
2022-11-30T07:57:15.410Z,1018.05
2022-11-30T08:02:22.672Z,1018.06
2022-11-30T08:07:29.781Z,1018.06
2022-11-30T08:12:36.915Z,1018.02
2022-11-30T08:17:44.160Z,1018.13
2022-11-30T08:22:51.314Z,1018.10
2022-11-30T08:27:58.935Z,1018.09
2022-11-30T08:33:06.170Z,1018.11
2022-11-30T08:38:13.355Z,1018.17
2022-11-30T08:43:20.599Z,1018.18
2022-11-30T08:48:27.851Z,1018.21
2022-11-30T08:53:35.084Z,1018.17
2022-11-30T08:58:42.376Z,1018.23
2022-11-30T09:03:49.555Z,1018.27
2022-11-30T09:08:56.814Z,1018.28
2022-11-30T09:14:03.989Z,1018.32
2022-11-30T09:19:11.234Z,1018.29
2022-11-30T09:24:18.387Z,1018.31
2022-11-30T09:29:28.648Z,1018.28
2022-11-30T09:34:35.926Z,1018.28
2022-11-30T09:39:43.070Z,1018.39
2022-11-30T09:44:50.623Z,1018.39
2022-11-30T09:49:57.544Z,1018.41
2022-11-30T09:55:04.707Z,1018.40
2022-11-30T10:00:11.909Z,1018.27
2022-11-30T10:05:19.129Z,1018.29
2022-11-30T10:10:34.050Z,1018.35
2022-11-30T10:15:33.657Z,1018.33
2022-11-30T10:20:40.838Z,1018.37
2022-11-30T10:25:47.994Z,1018.39
2022-11-30T10:30:55.262Z,1018.37
2022-11-30T10:36:02.509Z,1018.30
2022-11-30T10:41:09.700Z,1018.30
2022-11-30T10:46:17.290Z,1018.30
2022-11-30T10:51:24.029Z,1018.21
2022-11-30T10:56:31.155Z,1018.28
2022-11-30T11:01:38.472Z,1018.18
2022-11-30T11:06:45.607Z,1018.14
2022-11-30T11:11:52.765Z,1018.16
2022-11-30T11:16:59.995Z,1018.15
2022-11-30T11:22:07.189Z,1018.15
2022-11-30T11:27:14.343Z,1018.22
2022-11-30T11:32:21.529Z,1018.21
2022-11-30T11:37:28.769Z,1018.25
2022-11-30T11:42:36.044Z,1018.29
2022-11-30T11:47:43.274Z,1018.28
2022-11-30T11:52:50.565Z,1018.27
2022-11-30T11:57:57.781Z,1018.23
2022-11-30T12:03:05.105Z,1018.25
2022-11-30T12:08:12.265Z,1018.21
2022-11-30T12:13:19.423Z,1018.20
2022-11-30T12:18:26.622Z,1018.25
2022-11-30T12:23:33.806Z,1018.22
2022-11-30T12:28:40.949Z,1018.20
2022-11-30T12:33:48.206Z,1018.23
2022-11-30T12:38:55.415Z,1018.27
2022-11-30T12:44:02.562Z,1018.25
2022-11-30T12:49:09.909Z,1018.23
2022-11-30T12:54:17.084Z,1018.26
2022-11-30T12:59:24.355Z,1018.33
2022-11-30T13:04:31.580Z,1018.26
2022-11-30T13:09:38.794Z,1018.32
2022-11-30T13:14:46.355Z,1018.34
2022-11-30T13:19:53.173Z,1018.24
2022-11-30T13:25:00.429Z,1018.19
2022-11-30T13:30:07.593Z,1018.13
2022-11-30T13:35:14.793Z,1018.22
2022-11-30T13:40:22.044Z,1018.20
2022-11-30T13:45:29.274Z,1018.26
2022-11-30T13:50:36.411Z,1018.30
2022-11-30T13:55:43.672Z,1018.29
2022-11-30T14:00:50.857Z,1018.33
2022-11-30T14:05:58.033Z,1018.38
2022-11-30T14:11:05.247Z,1018.34
2022-11-30T14:16:12.460Z,1018.34
2022-11-30T14:21:19.628Z,1018.35
2022-11-30T14:26:26.867Z,1018.37
2022-11-30T14:31:34.102Z,1018.44
2022-11-30T14:36:41.141Z,1018.42
2022-11-30T14:41:48.379Z,1018.47
2022-11-30T14:46:55.682Z,1018.46
2022-11-30T14:52:02.764Z,1018.45
2022-11-30T14:57:10.091Z,1018.48
2022-11-30T15:02:17.238Z,1018.44
2022-11-30T15:07:24.354Z,1018.43
2022-11-30T15:12:31.540Z,1018.43
2022-11-30T15:17:38.690Z,1018.40
2022-11-30T15:22:45.888Z,1018.45
2022-11-30T15:27:53.202Z,1018.48
2022-11-30T15:33:00.308Z,1018.53
2022-11-30T15:38:07.495Z,1018.56
2022-11-30T15:43:14.755Z,1018.61
2022-11-30T15:48:21.940Z,1018.63
2022-11-30T15:53:29.205Z,1018.60
2022-11-30T15:58:36.649Z,1018.58
2022-11-30T16:03:44.145Z,1018.59
2022-11-30T16:08:51.447Z,1018.61
2022-11-30T16:13:58.680Z,1018.65
2022-11-30T16:19:05.860Z,1018.67
2022-11-30T16:24:13.360Z,1018.68
2022-11-30T16:29:20.812Z,1018.72
2022-11-30T16:34:27.969Z,1018.69
2022-11-30T16:39:35.281Z,1018.70
2022-11-30T16:44:42.926Z,1018.76
2022-11-30T16:49:50.522Z,1018.78
2022-11-30T16:54:57.836Z,1018.83
2022-11-30T17:00:05.719Z,1018.85
2022-11-30T17:05:12.904Z,1018.85
2022-11-30T17:10:20.359Z,1018.81
2022-11-30T17:15:27.769Z,1018.79
2022-11-30T17:20:35.170Z,1018.83
2022-11-30T17:25:42.492Z,1018.82
2022-11-30T17:30:49.855Z,1018.92
2022-11-30T17:35:58.729Z,1018.91
2022-11-30T17:41:06.119Z,1018.94
2022-11-30T17:46:13.416Z,1018.93
2022-11-30T17:51:20.909Z,1018.98
2022-11-30T17:56:28.215Z,1018.98
2022-11-30T18:01:35.811Z,1018.98
2022-11-30T18:06:43.291Z,1019.07
2022-11-30T18:11:51.415Z,1019.07
2022-11-30T18:16:58.895Z,1019.13
2022-11-30T18:22:06.438Z,1019.09
2022-11-30T18:27:14.049Z,1019.11
2022-11-30T18:32:21.704Z,1019.18
2022-11-30T18:37:29.394Z,1019.24
2022-11-30T18:42:37.001Z,1019.32
2022-11-30T18:47:44.373Z,1019.34
2022-11-30T18:52:51.922Z,1019.35
2022-11-30T18:57:59.529Z,1019.37
2022-11-30T19:03:07.343Z,1019.32
2022-11-30T19:08:14.862Z,1019.31
2022-11-30T19:13:22.476Z,1019.35
2022-11-30T19:18:30.221Z,1019.32
2022-11-30T19:23:37.820Z,1019.26
2022-11-30T19:28:45.305Z,1019.25
2022-11-30T19:33:53.775Z,1019.27
2022-11-30T19:39:01.368Z,1019.28
2022-11-30T19:44:09.084Z,1019.28
2022-11-30T19:49:17.230Z,1019.31
2022-11-30T19:54:24.532Z,1019.32
2022-11-30T19:59:32.137Z,1019.38
2022-11-30T20:04:39.876Z,1019.40
2022-11-30T20:09:48.070Z,1019.36
2022-11-30T20:14:55.436Z,1019.35
2022-11-30T20:20:03.033Z,1019.34
2022-11-30T20:25:10.612Z,1019.30
2022-11-30T20:30:18.233Z,1019.29
2022-11-30T20:35:26.370Z,1019.31
2022-11-30T20:40:33.765Z,1019.28
2022-11-30T20:45:41.391Z,1019.28
2022-11-30T20:51:21.692Z,1019.28
2022-11-30T20:55:56.603Z,1019.32
2022-11-30T21:01:04.195Z,1019.29
2022-11-30T21:06:12.831Z,1019.26
2022-11-30T21:11:20.500Z,1019.27
2022-11-30T21:16:29.141Z,1019.26
2022-11-30T21:21:35.044Z,1019.26
2022-11-30T21:26:42.185Z,1019.23
2022-11-30T21:31:49.336Z,1019.29
2022-11-30T21:36:56.536Z,1019.31
2022-11-30T21:42:03.706Z,1019.33
2022-11-30T21:47:10.909Z,1019.29
2022-11-30T21:52:18.137Z,1019.28
2022-11-30T21:57:25.320Z,1019.32
2022-11-30T22:02:32.568Z,1019.34
2022-11-30T22:07:39.778Z,1019.44
2022-11-30T22:12:46.961Z,1019.40
2022-11-30T22:17:54.152Z,1019.46
2022-11-30T22:23:01.403Z,1019.44
2022-11-30T22:28:08.626Z,1019.42
2022-11-30T22:33:15.891Z,1019.47
2022-11-30T22:38:23.086Z,1019.48
2022-11-30T22:43:30.307Z,1019.43
2022-11-30T22:48:37.488Z,1019.41
2022-11-30T22:53:44.764Z,1019.40
2022-11-30T22:58:51.980Z,1019.44
2022-11-30T23:03:59.253Z,1019.39
2022-11-30T23:09:06.350Z,1019.42
2022-11-30T23:14:13.537Z,1019.33
2022-11-30T23:19:20.699Z,1019.24
2022-11-30T23:24:27.920Z,1019.19
2022-11-30T23:29:35.103Z,1019.12
2022-11-30T23:34:43.503Z,1019.15
2022-11-30T23:39:49.843Z,1019.12
2022-11-30T23:44:56.739Z,1019.13
2022-11-30T23:50:03.921Z,1019.10
2022-11-30T23:55:11.180Z,1019.11
